Aeroporto :
LOGIN :

Iscrizione | Disclaimer

   EN    FR    IT 

 










Sommario :    VFR   VFR Marginale   IFR   IFR Intensivo   IFR Molto Intensivo
Visibilità : 
Base nubi : 
>= 8 km
>= 3000ft
5 / 8 km
1000 / 3000 ft
1500m / 5 km
500 / 1000 ft
800 / 1500m
200 / 500 ft
< 800m
< 200 ft
Simboli :   Temporali  Nebbia  Neve Forte  Precipitazioni Forti  Vento > 20 kt
SIGMETs :   Varie  Temporali  Ghiacco  Turbolenza  Onda orograficha  Ceneri Vulcaniche






- Altitudine del aeroporto : 268 ft
- Codice IATA : BFS


EGAA - Belfast Aldergrove

ULTIMO METAR :
  • 071820Z 19016KT 170V230 9999 -RA SCT015 BKN020 11/09 Q0995

METARs OBSOLETI :
  • 071750Z 19015KT 9999 FEW018 11/09 Q0996
  • 071720Z 19014G24KT 9999 FEW021 11/09 Q0997
  • 071650Z 19010KT 9999 FEW016 11/09 Q0998
  • 071620Z 20015KT 9999 SCT016 11/09 Q0999
  • 071550Z 21010KT 9999 FEW011 BKN016 11/10 Q1000

TAF TAF EGAA
Valido dal 07 a 18 ore il 08 a 18 ore UTC


071655Z 0718/0818 19017KT 9999 FEW018 SCT030
TEMPO 0718/0723 20020G35KT 5000 RA SCT008 BKN012
BECMG 0722/0801 25020G30KT
TEMPO 0804/0818 5000 SHRA SCT009 BKN014



MetMap, La meteo Aeronautica in un colpo d'occhio ! - Copyright ORBIFLY Dicembre 2007 - Disclaimer

ORBIFLY MET'MAP TEAM :

Programmazione e sviluppo : Alexandra Zaïnal
Concezione : Baudouin d'Aumeries
Aiuto per la programmazione : Marc-Olivier Méhu
Supporto tecnico e logistico : Manuel Goepfert
Aiuto per la traduzione : Arnaldo La Scala

Contatto : metmap@orbifly.com




FONTI E CREDITI :

   NOAA